sensor_id;sensor_type;location;lat;lon;timestamp;temperature;humidity
3023;DHT22;1521;53.584;9.938;2023-10-19T00:00:52;8.10;1.00
3023;DHT22;1521;53.584;9.938;2023-10-19T00:03:21;8.10;1.00
3023;DHT22;1521;53.584;9.938;2023-10-19T00:05:49;8.10;1.00
3023;DHT22;1521;53.584;9.938;2023-10-19T00:08:15;8.10;1.00
3023;DHT22;1521;53.584;9.938;2023-10-19T00:10:48;8.10;1.00
3023;DHT22;1521;53.584;9.938;2023-10-19T00:13:16;8.10;1.00
3023;DHT22;1521;53.584;9.938;2023-10-19T00:15:44;8.20;1.00
3023;DHT22;1521;53.584;9.938;2023-10-19T00:18:14;8.10;1.00
3023;DHT22;1521;53.584;9.938;2023-10-19T00:20:44;8.20;1.00
3023;DHT22;1521;53.584;9.938;2023-10-19T00:23:25;8.20;1.00
3023;DHT22;1521;53.584;9.938;2023-10-19T00:26:01;8.10;1.00
3023;DHT22;1521;53.584;9.938;2023-10-19T00:28:40;8.10;1.00
3023;DHT22;1521;53.584;9.938;2023-10-19T00:31:06;8.10;1.00
3023;DHT22;1521;53.584;9.938;2023-10-19T00:33:36;8.10;1.00
3023;DHT22;1521;53.584;9.938;2023-10-19T00:36:08;8.10;1.00
3023;DHT22;1521;53.584;9.938;2023-10-19T00:38:38;8.20;1.00
3023;DHT22;1521;53.584;9.938;2023-10-19T00:41:05;8.20;1.00
3023;DHT22;1521;53.584;9.938;2023-10-19T00:43:39;8.20;1.00
3023;DHT22;1521;53.584;9.938;2023-10-19T00:46:19;8.20;1.00
3023;DHT22;1521;53.584;9.938;2023-10-19T00:48:52;8.20;1.00
3023;DHT22;1521;53.584;9.938;2023-10-19T00:51:21;8.30;1.00
3023;DHT22;1521;53.584;9.938;2023-10-19T00:53:58;8.30;1.00
3023;DHT22;1521;53.584;9.938;2023-10-19T00:56:25;8.30;1.00
3023;DHT22;1521;53.584;9.938;2023-10-19T00:58:58;8.20;1.00
3023;DHT22;1521;53.584;9.938;2023-10-19T01:01:50;8.20;1.00
3023;DHT22;1521;53.584;9.938;2023-10-19T01:04:16;8.20;1.00
3023;DHT22;1521;53.584;9.938;2023-10-19T01:06:46;8.20;1.00
3023;DHT22;1521;53.584;9.938;2023-10-19T01:09:29;8.20;1.00
3023;DHT22;1521;53.584;9.938;2023-10-19T01:12:00;8.30;1.00
3023;DHT22;1521;53.584;9.938;2023-10-19T01:14:28;8.30;1.00
3023;DHT22;1521;53.584;9.938;2023-10-19T01:16:55;8.30;1.00
3023;DHT22;1521;53.584;9.938;2023-10-19T01:19:24;8.30;1.00
3023;DHT22;1521;53.584;9.938;2023-10-19T01:21:52;8.30;1.00
3023;DHT22;1521;53.584;9.938;2023-10-19T01:24:23;8.20;1.00
3023;DHT22;1521;53.584;9.938;2023-10-19T01:27:07;8.30;1.00
3023;DHT22;1521;53.584;9.938;2023-10-19T01:29:36;8.30;1.00
3023;DHT22;1521;53.584;9.938;2023-10-19T01:32:04;8.40;1.00
3023;DHT22;1521;53.584;9.938;2023-10-19T01:34:37;8.30;1.00
3023;DHT22;1521;53.584;9.938;2023-10-19T01:37:02;8.30;1.00
3023;DHT22;1521;53.584;9.938;2023-10-19T01:39:33;8.30;1.00
3023;DHT22;1521;53.584;9.938;2023-10-19T01:42:01;8.30;1.00
3023;DHT22;1521;53.584;9.938;2023-10-19T01:44:29;8.30;1.00
3023;DHT22;1521;53.584;9.938;2023-10-19T01:46:55;8.30;1.00
3023;DHT22;1521;53.584;9.938;2023-10-19T01:49:21;8.30;1.00
3023;DHT22;1521;53.584;9.938;2023-10-19T01:51:55;8.30;1.00
3023;DHT22;1521;53.584;9.938;2023-10-19T01:54:22;8.30;1.00
3023;DHT22;1521;53.584;9.938;2023-10-19T01:56:55;8.30;1.00
3023;DHT22;1521;53.584;9.938;2023-10-19T01:59:26;8.40;1.00
3023;DHT22;1521;53.584;9.938;2023-10-19T02:01:55;8.30;1.00
3023;DHT22;1521;53.584;9.938;2023-10-19T02:04:23;8.30;1.00
3023;DHT22;1521;53.584;9.938;2023-10-19T02:06:49;8.30;1.00
3023;DHT22;1521;53.584;9.938;2023-10-19T02:09:17;8.30;1.00
3023;DHT22;1521;53.584;9.938;2023-10-19T02:11:44;8.30;1.00
3023;DHT22;1521;53.584;9.938;2023-10-19T02:14:13;8.30;1.00
3023;DHT22;1521;53.584;9.938;2023-10-19T02:16:40;8.30;1.00
3023;DHT22;1521;53.584;9.938;2023-10-19T02:19:07;8.40;1.00
3023;DHT22;1521;53.584;9.938;2023-10-19T02:21:33;8.40;1.00
3023;DHT22;1521;53.584;9.938;2023-10-19T02:24:03;8.40;1.00
3023;DHT22;1521;53.584;9.938;2023-10-19T02:26:29;8.40;1.00
3023;DHT22;1521;53.584;9.938;2023-10-19T02:28:56;8.40;1.00
3023;DHT22;1521;53.584;9.938;2023-10-19T02:31:23;8.40;1.00
3023;DHT22;1521;53.584;9.938;2023-10-19T02:33:51;8.40;1.00
3023;DHT22;1521;53.584;9.938;2023-10-19T02:36:18;8.30;1.00
3023;DHT22;1521;53.584;9.938;2023-10-19T02:38:45;8.30;1.00
3023;DHT22;1521;53.584;9.938;2023-10-19T02:41:17;8.40;1.00
3023;DHT22;1521;53.584;9.938;2023-10-19T02:43:43;8.40;1.00
3023;DHT22;1521;53.584;9.938;2023-10-19T02:46:16;8.40;1.00
3023;DHT22;1521;53.584;9.938;2023-10-19T02:48:45;8.40;1.00
3023;DHT22;1521;53.584;9.938;2023-10-19T02:51:13;8.40;1.00
3023;DHT22;1521;53.584;9.938;2023-10-19T02:53:42;8.40;1.00
3023;DHT22;1521;53.584;9.938;2023-10-19T02:56:12;8.40;1.00
3023;DHT22;1521;53.584;9.938;2023-10-19T02:58:41;8.40;1.00
3023;DHT22;1521;53.584;9.938;2023-10-19T03:01:15;8.40;1.00
3023;DHT22;1521;53.584;9.938;2023-10-19T03:03:43;8.40;1.00
3023;DHT22;1521;53.584;9.938;2023-10-19T03:06:09;8.30;1.00
3023;DHT22;1521;53.584;9.938;2023-10-19T03:08:35;8.30;1.00
3023;DHT22;1521;53.584;9.938;2023-10-19T03:11:01;8.40;1.00
3023;DHT22;1521;53.584;9.938;2023-10-19T03:13:30;8.30;1.00
3023;DHT22;1521;53.584;9.938;2023-10-19T03:15:58;8.30;1.00
3023;DHT22;1521;53.584;9.938;2023-10-19T03:18:26;8.30;1.00
3023;DHT22;1521;53.584;9.938;2023-10-19T03:20:51;8.40;1.00
3023;DHT22;1521;53.584;9.938;2023-10-19T03:23:17;8.30;1.00
3023;DHT22;1521;53.584;9.938;2023-10-19T03:25:42;8.40;1.00
3023;DHT22;1521;53.584;9.938;2023-10-19T03:28:15;8.40;1.00
3023;DHT22;1521;53.584;9.938;2023-10-19T03:30:43;8.40;1.00
3023;DHT22;1521;53.584;9.938;2023-10-19T03:33:09;8.40;1.00
3023;DHT22;1521;53.584;9.938;2023-10-19T03:35:36;8.30;1.00
3023;DHT22;1521;53.584;9.938;2023-10-19T03:38:03;8.20;1.00
3023;DHT22;1521;53.584;9.938;2023-10-19T03:40:34;8.10;1.00
3023;DHT22;1521;53.584;9.938;2023-10-19T03:43:03;8.10;1.00
3023;DHT22;1521;53.584;9.938;2023-10-19T03:45:39;8.00;1.00
3023;DHT22;1521;53.584;9.938;2023-10-19T03:48:09;7.90;1.00
3023;DHT22;1521;53.584;9.938;2023-10-19T03:50:35;7.80;77.80
3023;DHT22;1521;53.584;9.938;2023-10-19T03:53:02;7.80;99.90
3023;DHT22;1521;53.584;9.938;2023-10-19T03:55:29;7.70;99.90
3023;DHT22;1521;53.584;9.938;2023-10-19T03:57:55;7.60;1.00
3023;DHT22;1521;53.584;9.938;2023-10-19T04:00:21;7.60;1.00
3023;DHT22;1521;53.584;9.938;2023-10-19T04:02:51;7.50;1.00
3023;DHT22;1521;53.584;9.938;2023-10-19T04:05:18;7.50;99.90
3023;DHT22;1521;53.584;9.938;2023-10-19T04:07:48;7.50;99.90
3023;DHT22;1521;53.584;9.938;2023-10-19T04:10:21;7.50;1.00
3023;DHT22;1521;53.584;9.938;2023-10-19T04:12:59;7.50;1.00
3023;DHT22;1521;53.584;9.938;2023-10-19T04:15:26;7.50;18.60
3023;DHT22;1521;53.584;9.938;2023-10-19T04:17:52;7.40;65.00
3023;DHT22;1521;53.584;9.938;2023-10-19T04:20:24;7.40;99.90
3023;DHT22;1521;53.584;9.938;2023-10-19T04:22:52;7.40;1.00
3023;DHT22;1521;53.584;9.938;2023-10-19T04:25:31;7.40;1.00
3023;DHT22;1521;53.584;9.938;2023-10-19T04:27:57;7.30;66.80
3023;DHT22;1521;53.584;9.938;2023-10-19T04:30:22;7.20;99.90
3023;DHT22;1521;53.584;9.938;2023-10-19T04:32:49;7.20;12.60
3023;DHT22;1521;53.584;9.938;2023-10-19T04:35:15;7.20;1.00
3023;DHT22;1521;53.584;9.938;2023-10-19T04:37:49;7.20;99.90
3023;DHT22;1521;53.584;9.938;2023-10-19T04:40:16;7.20;1.00
3023;DHT22;1521;53.584;9.938;2023-10-19T04:42:41;7.10;99.90
3023;DHT22;1521;53.584;9.938;2023-10-19T04:45:07;7.10;1.00
3023;DHT22;1521;53.584;9.938;2023-10-19T04:47:33;7.10;99.90
3023;DHT22;1521;53.584;9.938;2023-10-19T04:50:02;7.10;1.00
3023;DHT22;1521;53.584;9.938;2023-10-19T04:52:29;7.00;1.00
3023;DHT22;1521;53.584;9.938;2023-10-19T04:54:54;7.00;99.90
3023;DHT22;1521;53.584;9.938;2023-10-19T04:57:20;7.00;10.90
3023;DHT22;1521;53.584;9.938;2023-10-19T04:59:48;7.00;99.90
3023;DHT22;1521;53.584;9.938;2023-10-19T05:02:14;7.00;1.00
3023;DHT22;1521;53.584;9.938;2023-10-19T05:04:39;7.00;1.00
3023;DHT22;1521;53.584;9.938;2023-10-19T05:07:06;7.00;1.00
3023;DHT22;1521;53.584;9.938;2023-10-19T05:09:35;7.00;1.00
3023;DHT22;1521;53.584;9.938;2023-10-19T05:12:04;7.00;1.00
3023;DHT22;1521;53.584;9.938;2023-10-19T05:14:34;6.90;1.00
3023;DHT22;1521;53.584;9.938;2023-10-19T05:17:04;7.00;23.00
3023;DHT22;1521;53.584;9.938;2023-10-19T05:19:31;6.90;1.00
3023;DHT22;1521;53.584;9.938;2023-10-19T05:21:56;6.90;99.90
3023;DHT22;1521;53.584;9.938;2023-10-19T05:24:22;6.90;1.00
3023;DHT22;1521;53.584;9.938;2023-10-19T05:26:48;6.90;1.00
3023;DHT22;1521;53.584;9.938;2023-10-19T05:29:13;6.90;1.00
3023;DHT22;1521;53.584;9.938;2023-10-19T05:31:39;6.90;99.90
3023;DHT22;1521;53.584;9.938;2023-10-19T05:34:05;6.90;99.90
3023;DHT22;1521;53.584;9.938;2023-10-19T05:36:30;6.90;1.00
3023;DHT22;1521;53.584;9.938;2023-10-19T05:38:57;7.00;1.00
3023;DHT22;1521;53.584;9.938;2023-10-19T05:41:23;6.90;99.90
3023;DHT22;1521;53.584;9.938;2023-10-19T05:43:48;6.90;1.00
3023;DHT22;1521;53.584;9.938;2023-10-19T05:46:15;6.90;37.70
3023;DHT22;1521;53.584;9.938;2023-10-19T05:48:44;6.90;1.00
3023;DHT22;1521;53.584;9.938;2023-10-19T05:51:10;6.90;1.00
3023;DHT22;1521;53.584;9.938;2023-10-19T05:53:36;6.90;99.90
3023;DHT22;1521;53.584;9.938;2023-10-19T05:56:02;6.90;99.90
3023;DHT22;1521;53.584;9.938;2023-10-19T05:58:28;6.80;1.00
3023;DHT22;1521;53.584;9.938;2023-10-19T06:00:58;6.90;4.60
3023;DHT22;1521;53.584;9.938;2023-10-19T06:03:24;6.90;99.90
3023;DHT22;1521;53.584;9.938;2023-10-19T06:05:49;6.90;1.00
3023;DHT22;1521;53.584;9.938;2023-10-19T06:08:15;6.90;99.90
3023;DHT22;1521;53.584;9.938;2023-10-19T06:10:41;6.90;99.90
3023;DHT22;1521;53.584;9.938;2023-10-19T06:13:07;6.90;1.00
3023;DHT22;1521;53.584;9.938;2023-10-19T06:15:35;6.90;12.60
3023;DHT22;1521;53.584;9.938;2023-10-19T06:18:01;6.80;1.00
3023;DHT22;1521;53.584;9.938;2023-10-19T06:20:26;6.90;99.90
3023;DHT22;1521;53.584;9.938;2023-10-19T06:22:57;6.90;76.70
3023;DHT22;1521;53.584;9.938;2023-10-19T06:25:29;6.90;99.90
3023;DHT22;1521;53.584;9.938;2023-10-19T06:27:55;6.90;99.90
3023;DHT22;1521;53.584;9.938;2023-10-19T06:30:23;6.90;1.00
3023;DHT22;1521;53.584;9.938;2023-10-19T06:32:50;7.00;99.90
3023;DHT22;1521;53.584;9.938;2023-10-19T06:35:20;7.00;99.90
3023;DHT22;1521;53.584;9.938;2023-10-19T06:37:47;7.00;99.90
3023;DHT22;1521;53.584;9.938;2023-10-19T06:40:13;7.00;1.00
3023;DHT22;1521;53.584;9.938;2023-10-19T06:42:46;7.00;1.00
3023;DHT22;1521;53.584;9.938;2023-10-19T06:45:16;7.00;99.90
3023;DHT22;1521;53.584;9.938;2023-10-19T06:47:43;7.00;86.60
3023;DHT22;1521;53.584;9.938;2023-10-19T06:50:11;7.10;5.90
3023;DHT22;1521;53.584;9.938;2023-10-19T06:52:39;7.00;99.90
3023;DHT22;1521;53.584;9.938;2023-10-19T06:55:07;7.00;99.90
3023;DHT22;1521;53.584;9.938;2023-10-19T06:57:46;7.00;99.90
3023;DHT22;1521;53.584;9.938;2023-10-19T07:00:17;7.00;1.00
3023;DHT22;1521;53.584;9.938;2023-10-19T07:02:46;7.00;1.00
3023;DHT22;1521;53.584;9.938;2023-10-19T07:05:13;7.10;1.00
3023;DHT22;1521;53.584;9.938;2023-10-19T07:07:43;7.10;96.80
3023;DHT22;1521;53.584;9.938;2023-10-19T07:10:11;7.10;99.90
3023;DHT22;1521;53.584;9.938;2023-10-19T07:12:44;7.10;99.90
3023;DHT22;1521;53.584;9.938;2023-10-19T07:15:10;7.20;62.60
3023;DHT22;1521;53.584;9.938;2023-10-19T07:17:42;7.20;5.60
3023;DHT22;1521;53.584;9.938;2023-10-19T07:20:09;7.20;99.90
3023;DHT22;1521;53.584;9.938;2023-10-19T07:22:56;7.20;95.50
3023;DHT22;1521;53.584;9.938;2023-10-19T07:25:23;7.10;99.90
3023;DHT22;1521;53.584;9.938;2023-10-19T07:27:51;7.10;99.90
3023;DHT22;1521;53.584;9.938;2023-10-19T07:30:18;7.10;1.00
3023;DHT22;1521;53.584;9.938;2023-10-19T07:32:50;7.10;99.90
3023;DHT22;1521;53.584;9.938;2023-10-19T07:35:27;7.10;99.90
3023;DHT22;1521;53.584;9.938;2023-10-19T07:37:54;7.20;1.00
3023;DHT22;1521;53.584;9.938;2023-10-19T07:40:20;7.10;99.90
3023;DHT22;1521;53.584;9.938;2023-10-19T07:42:46;7.10;1.00
3023;DHT22;1521;53.584;9.938;2023-10-19T07:45:13;7.20;99.90
3023;DHT22;1521;53.584;9.938;2023-10-19T07:47:41;7.20;99.90
3023;DHT22;1521;53.584;9.938;2023-10-19T07:50:11;7.20;99.90
3023;DHT22;1521;53.584;9.938;2023-10-19T07:52:47;7.20;1.00
3023;DHT22;1521;53.584;9.938;2023-10-19T07:55:14;7.20;1.00
3023;DHT22;1521;53.584;9.938;2023-10-19T07:57:42;7.30;1.00
3023;DHT22;1521;53.584;9.938;2023-10-19T08:00:08;7.30;99.90
3023;DHT22;1521;53.584;9.938;2023-10-19T08:02:35;7.30;99.90
3023;DHT22;1521;53.584;9.938;2023-10-19T08:05:03;7.40;99.90
3023;DHT22;1521;53.584;9.938;2023-10-19T08:07:29;7.40;99.90
3023;DHT22;1521;53.584;9.938;2023-10-19T08:09:55;7.40;1.00
3023;DHT22;1521;53.584;9.938;2023-10-19T08:12:24;7.40;99.90
3023;DHT22;1521;53.584;9.938;2023-10-19T08:14:52;7.40;99.90
3023;DHT22;1521;53.584;9.938;2023-10-19T08:17:18;7.40;1.00
3023;DHT22;1521;53.584;9.938;2023-10-19T08:19:43;7.40;47.20
3023;DHT22;1521;53.584;9.938;2023-10-19T08:22:09;7.40;99.90
3023;DHT22;1521;53.584;9.938;2023-10-19T08:24:35;7.40;1.00
3023;DHT22;1521;53.584;9.938;2023-10-19T08:27:01;7.40;1.00
3023;DHT22;1521;53.584;9.938;2023-10-19T08:29:27;7.50;99.90
3023;DHT22;1521;53.584;9.938;2023-10-19T08:31:52;7.50;1.00
3023;DHT22;1521;53.584;9.938;2023-10-19T08:34:18;7.50;1.00
3023;DHT22;1521;53.584;9.938;2023-10-19T08:36:45;7.50;1.00
3023;DHT22;1521;53.584;9.938;2023-10-19T08:39:11;7.60;99.90
3023;DHT22;1521;53.584;9.938;2023-10-19T08:41:39;7.50;99.90
3023;DHT22;1521;53.584;9.938;2023-10-19T08:44:07;7.60;1.00
3023;DHT22;1521;53.584;9.938;2023-10-19T08:46:42;7.60;1.00
3023;DHT22;1521;53.584;9.938;2023-10-19T08:49:14;7.50;1.00
3023;DHT22;1521;53.584;9.938;2023-10-19T08:51:45;7.50;93.10
3023;DHT22;1521;53.584;9.938;2023-10-19T08:54:12;7.50;99.90
3023;DHT22;1521;53.584;9.938;2023-10-19T08:56:39;7.50;99.90
3023;DHT22;1521;53.584;9.938;2023-10-19T08:59:09;7.50;99.90
3023;DHT22;1521;53.584;9.938;2023-10-19T09:01:36;7.50;1.00
3023;DHT22;1521;53.584;9.938;2023-10-19T09:04:02;7.50;1.00
3023;DHT22;1521;53.584;9.938;2023-10-19T09:06:28;7.60;10.30
3023;DHT22;1521;53.584;9.938;2023-10-19T09:08:55;7.60;1.00
3023;DHT22;1521;53.584;9.938;2023-10-19T09:11:20;7.60;1.00
3023;DHT22;1521;53.584;9.938;2023-10-19T09:13:48;7.60;99.90
3023;DHT22;1521;53.584;9.938;2023-10-19T09:16:24;7.70;1.00
3023;DHT22;1521;53.584;9.938;2023-10-19T09:18:52;7.70;1.00
3023;DHT22;1521;53.584;9.938;2023-10-19T09:21:18;7.70;99.90
3023;DHT22;1521;53.584;9.938;2023-10-19T09:23:51;7.60;1.00
3023;DHT22;1521;53.584;9.938;2023-10-19T09:26:17;7.60;1.00
3023;DHT22;1521;53.584;9.938;2023-10-19T09:28:46;7.60;99.90
3023;DHT22;1521;53.584;9.938;2023-10-19T09:31:13;7.60;1.00
3023;DHT22;1521;53.584;9.938;2023-10-19T09:33:43;7.60;1.00
3023;DHT22;1521;53.584;9.938;2023-10-19T09:36:10;7.50;1.00
3023;DHT22;1521;53.584;9.938;2023-10-19T09:41:12;7.50;1.00
3023;DHT22;1521;53.584;9.938;2023-10-19T09:43:46;7.60;1.00
3023;DHT22;1521;53.584;9.938;2023-10-19T09:46:23;7.60;28.90
3023;DHT22;1521;53.584;9.938;2023-10-19T09:48:50;7.50;99.90
3023;DHT22;1521;53.584;9.938;2023-10-19T09:51:18;7.50;1.00
3023;DHT22;1521;53.584;9.938;2023-10-19T09:53:51;7.60;77.40
3023;DHT22;1521;53.584;9.938;2023-10-19T09:56:21;7.50;1.00
3023;DHT22;1521;53.584;9.938;2023-10-19T09:58:55;7.50;1.00
3023;DHT22;1521;53.584;9.938;2023-10-19T10:01:23;7.50;1.00
3023;DHT22;1521;53.584;9.938;2023-10-19T10:03:53;7.50;99.90
3023;DHT22;1521;53.584;9.938;2023-10-19T10:06:30;7.60;1.00
3023;DHT22;1521;53.584;9.938;2023-10-19T10:08:58;7.60;1.00
3023;DHT22;1521;53.584;9.938;2023-10-19T10:11:26;7.60;99.90
3023;DHT22;1521;53.584;9.938;2023-10-19T10:13:53;7.50;5.70
3023;DHT22;1521;53.584;9.938;2023-10-19T10:16:23;7.50;1.00
3023;DHT22;1521;53.584;9.938;2023-10-19T10:18:50;7.50;1.00
3023;DHT22;1521;53.584;9.938;2023-10-19T10:21:18;7.50;99.90
3023;DHT22;1521;53.584;9.938;2023-10-19T10:23:53;7.60;99.90
3023;DHT22;1521;53.584;9.938;2023-10-19T10:26:23;7.60;99.90
3023;DHT22;1521;53.584;9.938;2023-10-19T10:29:15;7.60;99.90
3023;DHT22;1521;53.584;9.938;2023-10-19T10:31:48;7.70;99.90
3023;DHT22;1521;53.584;9.938;2023-10-19T10:37:03;7.70;99.90
3023;DHT22;1521;53.584;9.938;2023-10-19T10:39:31;7.70;1.00
3023;DHT22;1521;53.584;9.938;2023-10-19T10:42:01;7.70;45.00
3023;DHT22;1521;53.584;9.938;2023-10-19T10:44:44;7.70;99.90
3023;DHT22;1521;53.584;9.938;2023-10-19T10:47:18;7.70;1.00
3023;DHT22;1521;53.584;9.938;2023-10-19T10:49:57;7.70;99.90
3023;DHT22;1521;53.584;9.938;2023-10-19T10:52:31;7.70;99.90
3023;DHT22;1521;53.584;9.938;2023-10-19T10:55:08;7.60;99.90
3023;DHT22;1521;53.584;9.938;2023-10-19T10:57:37;7.60;1.00
3023;DHT22;1521;53.584;9.938;2023-10-19T11:00:10;7.50;1.00
3023;DHT22;1521;53.584;9.938;2023-10-19T11:02:41;7.50;99.90
3023;DHT22;1521;53.584;9.938;2023-10-19T11:05:15;7.60;99.90
3023;DHT22;1521;53.584;9.938;2023-10-19T11:10:27;8.90;99.90
3023;DHT22;1521;53.584;9.938;2023-10-19T11:13:06;7.70;4.90
3023;DHT22;1521;53.584;9.938;2023-10-19T11:15:33;7.60;1.00
3023;DHT22;1521;53.584;9.938;2023-10-19T11:17:59;7.60;5.20
3023;DHT22;1521;53.584;9.938;2023-10-19T11:20:26;7.50;1.00
3023;DHT22;1521;53.584;9.938;2023-10-19T11:22:55;7.50;99.90
3023;DHT22;1521;53.584;9.938;2023-10-19T11:25:26;7.50;1.00
3023;DHT22;1521;53.584;9.938;2023-10-19T11:27:56;7.50;99.90
3023;DHT22;1521;53.584;9.938;2023-10-19T11:30:29;7.40;99.90
3023;DHT22;1521;53.584;9.938;2023-10-19T11:32:56;7.50;10.70
3023;DHT22;1521;53.584;9.938;2023-10-19T11:35:27;7.50;99.90
3023;DHT22;1521;53.584;9.938;2023-10-19T11:37:55;7.50;99.90
3023;DHT22;1521;53.584;9.938;2023-10-19T11:40:21;7.50;1.00
3023;DHT22;1521;53.584;9.938;2023-10-19T11:42:48;7.50;1.00
3023;DHT22;1521;53.584;9.938;2023-10-19T11:45:14;7.50;18.90
3023;DHT22;1521;53.584;9.938;2023-10-19T11:47:39;7.50;23.10
3023;DHT22;1521;53.584;9.938;2023-10-19T11:50:05;7.50;99.90
3023;DHT22;1521;53.584;9.938;2023-10-19T11:52:31;7.50;99.90
3023;DHT22;1521;53.584;9.938;2023-10-19T11:54:57;7.50;1.00
3023;DHT22;1521;53.584;9.938;2023-10-19T11:57:26;7.50;1.00
3023;DHT22;1521;53.584;9.938;2023-10-19T11:59:51;7.60;1.00
3023;DHT22;1521;53.584;9.938;2023-10-19T12:02:20;7.60;1.00
3023;DHT22;1521;53.584;9.938;2023-10-19T12:04:46;7.60;1.00
3023;DHT22;1521;53.584;9.938;2023-10-19T12:07:11;7.60;1.00
3023;DHT22;1521;53.584;9.938;2023-10-19T12:09:37;7.60;1.00
3023;DHT22;1521;53.584;9.938;2023-10-19T12:12:07;7.60;99.90
3023;DHT22;1521;53.584;9.938;2023-10-19T12:14:33;7.60;99.90
3023;DHT22;1521;53.584;9.938;2023-10-19T12:17:00;7.60;99.90
3023;DHT22;1521;53.584;9.938;2023-10-19T12:19:32;7.60;99.90
3023;DHT22;1521;53.584;9.938;2023-10-19T12:21:59;7.60;99.90
3023;DHT22;1521;53.584;9.938;2023-10-19T12:24:25;7.70;1.00
3023;DHT22;1521;53.584;9.938;2023-10-19T12:26:53;7.70;1.00
3023;DHT22;1521;53.584;9.938;2023-10-19T12:29:19;7.70;1.00
3023;DHT22;1521;53.584;9.938;2023-10-19T12:31:47;7.70;99.90
3023;DHT22;1521;53.584;9.938;2023-10-19T12:34:13;7.70;1.00
3023;DHT22;1521;53.584;9.938;2023-10-19T12:36:38;7.70;1.00
3023;DHT22;1521;53.584;9.938;2023-10-19T12:39:06;7.80;78.90
3023;DHT22;1521;53.584;9.938;2023-10-19T12:41:32;7.80;1.00
3023;DHT22;1521;53.584;9.938;2023-10-19T12:43:58;7.80;99.90
3023;DHT22;1521;53.584;9.938;2023-10-19T12:46:24;7.70;1.00
3023;DHT22;1521;53.584;9.938;2023-10-19T12:48:55;7.70;99.90
3023;DHT22;1521;53.584;9.938;2023-10-19T12:51:22;7.80;1.00
3023;DHT22;1521;53.584;9.938;2023-10-19T12:53:51;7.80;25.30
3023;DHT22;1521;53.584;9.938;2023-10-19T12:56:20;7.90;99.90
3023;DHT22;1521;53.584;9.938;2023-10-19T12:58:46;7.90;99.90
3023;DHT22;1521;53.584;9.938;2023-10-19T13:01:14;8.00;99.90
3023;DHT22;1521;53.584;9.938;2023-10-19T13:03:43;8.00;99.90
3023;DHT22;1521;53.584;9.938;2023-10-19T13:06:11;8.00;1.00
3023;DHT22;1521;53.584;9.938;2023-10-19T13:08:38;8.10;1.00
3023;DHT22;1521;53.584;9.938;2023-10-19T13:11:09;8.10;1.00
3023;DHT22;1521;53.584;9.938;2023-10-19T13:13:40;8.00;1.00
3023;DHT22;1521;53.584;9.938;2023-10-19T13:16:06;8.00;21.70
3023;DHT22;1521;53.584;9.938;2023-10-19T13:18:35;8.00;36.60
3023;DHT22;1521;53.584;9.938;2023-10-19T13:21:01;8.00;60.90
3023;DHT22;1521;53.584;9.938;2023-10-19T13:23:33;8.00;99.90
3023;DHT22;1521;53.584;9.938;2023-10-19T13:25:59;8.00;91.70
3023;DHT22;1521;53.584;9.938;2023-10-19T13:28:43;8.00;1.00
3023;DHT22;1521;53.584;9.938;2023-10-19T13:31:09;8.00;1.00
3023;DHT22;1521;53.584;9.938;2023-10-19T13:33:35;7.90;99.90
3023;DHT22;1521;53.584;9.938;2023-10-19T13:36:01;7.90;1.00
3023;DHT22;1521;53.584;9.938;2023-10-19T13:38:28;7.90;99.90
3023;DHT22;1521;53.584;9.938;2023-10-19T13:40:54;8.00;1.00
3023;DHT22;1521;53.584;9.938;2023-10-19T13:43:19;8.00;1.00
3023;DHT22;1521;53.584;9.938;2023-10-19T13:45:46;8.00;1.00
3023;DHT22;1521;53.584;9.938;2023-10-19T13:48:13;8.00;1.00
3023;DHT22;1521;53.584;9.938;2023-10-19T13:50:44;8.10;1.00
3023;DHT22;1521;53.584;9.938;2023-10-19T13:53:11;8.00;1.00
3023;DHT22;1521;53.584;9.938;2023-10-19T13:55:37;8.00;86.30
3023;DHT22;1521;53.584;9.938;2023-10-19T13:58:03;8.00;1.00
3023;DHT22;1521;53.584;9.938;2023-10-19T14:00:28;8.10;1.00
3023;DHT22;1521;53.584;9.938;2023-10-19T14:03:01;8.10;99.90
3023;DHT22;1521;53.584;9.938;2023-10-19T14:05:35;8.00;1.00
3023;DHT22;1521;53.584;9.938;2023-10-19T14:08:01;8.10;1.00
3023;DHT22;1521;53.584;9.938;2023-10-19T14:10:29;8.10;1.00
3023;DHT22;1521;53.584;9.938;2023-10-19T14:12:54;8.10;1.00
3023;DHT22;1521;53.584;9.938;2023-10-19T14:15:20;8.20;99.90
3023;DHT22;1521;53.584;9.938;2023-10-19T14:17:48;8.20;30.80
3023;DHT22;1521;53.584;9.938;2023-10-19T14:20:15;8.20;1.00
3023;DHT22;1521;53.584;9.938;2023-10-19T14:22:48;8.20;99.90
3023;DHT22;1521;53.584;9.938;2023-10-19T14:25:15;8.20;99.90
3023;DHT22;1521;53.584;9.938;2023-10-19T14:27:45;8.20;99.90
3023;DHT22;1521;53.584;9.938;2023-10-19T14:30:13;8.20;1.00
3023;DHT22;1521;53.584;9.938;2023-10-19T14:32:43;8.20;1.00
3023;DHT22;1521;53.584;9.938;2023-10-19T14:35:12;8.20;1.00
3023;DHT22;1521;53.584;9.938;2023-10-19T14:37:39;8.20;55.00
3023;DHT22;1521;53.584;9.938;2023-10-19T14:40:13;8.10;1.00
3023;DHT22;1521;53.584;9.938;2023-10-19T14:42:43;8.10;1.00
3023;DHT22;1521;53.584;9.938;2023-10-19T14:45:10;8.10;1.00
3023;DHT22;1521;53.584;9.938;2023-10-19T14:47:37;8.10;1.00
3023;DHT22;1521;53.584;9.938;2023-10-19T14:50:04;8.20;1.00
3023;DHT22;1521;53.584;9.938;2023-10-19T14:52:30;8.20;99.90
3023;DHT22;1521;53.584;9.938;2023-10-19T14:54:55;8.20;99.90
3023;DHT22;1521;53.584;9.938;2023-10-19T14:57:21;8.20;99.90
3023;DHT22;1521;53.584;9.938;2023-10-19T14:59:47;8.20;99.90
3023;DHT22;1521;53.584;9.938;2023-10-19T15:02:13;8.30;1.00
3023;DHT22;1521;53.584;9.938;2023-10-19T15:04:39;8.30;1.00
3023;DHT22;1521;53.584;9.938;2023-10-19T15:07:05;8.20;1.00
3023;DHT22;1521;53.584;9.938;2023-10-19T15:09:31;8.30;1.00
3023;DHT22;1521;53.584;9.938;2023-10-19T15:11:58;8.20;99.90
3023;DHT22;1521;53.584;9.938;2023-10-19T15:14:23;8.20;99.90
3023;DHT22;1521;53.584;9.938;2023-10-19T15:16:50;8.30;99.90
3023;DHT22;1521;53.584;9.938;2023-10-19T15:19:16;8.20;99.90
3023;DHT22;1521;53.584;9.938;2023-10-19T15:21:44;8.30;99.90
3023;DHT22;1521;53.584;9.938;2023-10-19T15:24:10;8.20;1.00
3023;DHT22;1521;53.584;9.938;2023-10-19T15:26:38;8.20;1.00
3023;DHT22;1521;53.584;9.938;2023-10-19T15:29:04;8.20;1.00
3023;DHT22;1521;53.584;9.938;2023-10-19T15:31:30;8.10;99.90
3023;DHT22;1521;53.584;9.938;2023-10-19T15:33:56;8.10;1.00
3023;DHT22;1521;53.584;9.938;2023-10-19T15:36:22;8.00;99.90
3023;DHT22;1521;53.584;9.938;2023-10-19T15:38:48;8.00;99.90
3023;DHT22;1521;53.584;9.938;2023-10-19T15:41:15;8.00;1.00
3023;DHT22;1521;53.584;9.938;2023-10-19T15:43:41;8.00;99.90
3023;DHT22;1521;53.584;9.938;2023-10-19T15:46:07;8.00;1.00
3023;DHT22;1521;53.584;9.938;2023-10-19T15:48:39;7.90;99.90
3023;DHT22;1521;53.584;9.938;2023-10-19T15:51:05;7.90;99.90
3023;DHT22;1521;53.584;9.938;2023-10-19T15:53:34;7.90;99.90
3023;DHT22;1521;53.584;9.938;2023-10-19T15:56:00;7.90;1.00
3023;DHT22;1521;53.584;9.938;2023-10-19T15:58:25;7.90;1.00
3023;DHT22;1521;53.584;9.938;2023-10-19T16:00:51;7.90;1.00
3023;DHT22;1521;53.584;9.938;2023-10-19T16:03:17;7.90;99.90
3023;DHT22;1521;53.584;9.938;2023-10-19T16:05:42;7.90;99.90
3023;DHT22;1521;53.584;9.938;2023-10-19T16:08:08;7.90;1.00
3023;DHT22;1521;53.584;9.938;2023-10-19T16:10:34;7.80;84.80
3023;DHT22;1521;53.584;9.938;2023-10-19T16:12:59;7.90;99.90
3023;DHT22;1521;53.584;9.938;2023-10-19T16:15:25;7.90;1.00
3023;DHT22;1521;53.584;9.938;2023-10-19T16:17:51;7.80;1.00
3023;DHT22;1521;53.584;9.938;2023-10-19T16:20:17;7.80;1.00
3023;DHT22;1521;53.584;9.938;2023-10-19T16:22:42;7.90;1.00
3023;DHT22;1521;53.584;9.938;2023-10-19T16:25:08;7.90;1.00
3023;DHT22;1521;53.584;9.938;2023-10-19T16:27:35;7.90;1.00
3023;DHT22;1521;53.584;9.938;2023-10-19T16:30:01;7.80;1.00
3023;DHT22;1521;53.584;9.938;2023-10-19T16:32:26;7.80;1.00
3023;DHT22;1521;53.584;9.938;2023-10-19T16:34:55;7.80;2.30
3023;DHT22;1521;53.584;9.938;2023-10-19T16:37:21;7.80;31.00
3023;DHT22;1521;53.584;9.938;2023-10-19T16:39:49;7.80;81.60
3023;DHT22;1521;53.584;9.938;2023-10-19T16:42:16;7.80;99.90